Time;durP1;ratioP1;P1;durP2;ratioP2;P2;SDS_P1;SDS_P2;PMS_P1;PMS_P2;Temp;Humidity;BMP_temperature;BMP_pressure;BME280_temperature;BME280_humidity;BME280_pressure;Samples;Min_cycle;Max_cycle;Signal;HPM_P1;HPM_P2
2023/05/29 00:01:23;;;;;;;5.53;3.75;;;;;;;;;;20922894;28;20043;-64
2023/05/29 00:11:25;;;;;;;5.38;3.78;;;;;;;;;;20923352;28;20045;-65
2023/05/29 00:21:26;;;;;;;6.30;4.00;;;;;;;;;;20922523;28;20049;-64
2023/05/29 00:31:28;;;;;;;7.68;3.88;;;;;;;;;;20920427;28;20057;-64
2023/05/29 00:41:29;;;;;;;6.50;4.30;;;;;;;;;;20921128;28;20501;-65
2023/05/29 00:51:31;;;;;;;7.05;4.28;;;;;;;;;;20920153;28;20118;-64
2023/05/29 01:01:33;;;;;;;8.18;4.70;;;;;;;;;;20919289;28;20045;-64
2023/05/29 01:11:34;;;;;;;8.05;5.10;;;;;;;;;;20918500;28;20482;-64
2023/05/29 01:21:41;;;;;;;7.45;4.88;;;;;;;;;;20917762;28;20517;-64
2023/05/29 01:31:43;;;;;;;7.20;5.30;;;;;;;;;;20915235;28;20092;-64
2023/05/29 01:41:44;;;;;;;8.45;5.78;;;;;;;;;;20914957;28;20091;-65
2023/05/29 01:51:46;;;;;;;9.30;6.00;;;;;;;;;;20915576;28;20505;-64
2023/05/29 02:01:48;;;;;;;9.98;6.10;;;;;;;;;;20913903;28;20111;-64
2023/05/29 02:11:49;;;;;;;8.02;5.82;;;;;;;;;;20914358;28;20045;-64
2023/05/29 02:21:51;;;;;;;9.55;6.88;;;;;;;;;;20914192;28;20056;-64
2023/05/29 02:31:52;;;;;;;9.82;7.32;;;;;;;;;;20914651;28;20498;-64
2023/05/29 02:41:53;;;;;;;9.65;7.25;;;;;;;;;;20913801;28;20112;-64
2023/05/29 02:51:56;;;;;;;11.45;7.28;;;;;;;;;;20927270;28;20048;-65
2023/05/29 03:01:57;;;;;;;11.13;6.82;;;;;;;;;;20928769;28;20080;-65
2023/05/29 03:12:01;;;;;;;10.48;7.35;;;;;;;;;;20928114;28;20080;-65
2023/05/29 03:22:02;;;;;;;13.35;7.00;;;;;;;;;;20927394;28;20072;-64
2023/05/29 03:32:03;;;;;;;11.68;7.43;;;;;;;;;;20925287;28;20056;-64
2023/05/29 03:42:04;;;;;;;14.05;8.00;;;;;;;;;;20925947;28;20103;-64
2023/05/29 03:52:06;;;;;;;15.98;9.93;;;;;;;;;;20924695;28;20045;-64
2023/05/29 04:02:07;;;;;;;16.75;10.52;;;;;;;;;;20923749;28;20102;-63
2023/05/29 04:12:08;;;;;;;15.35;10.32;;;;;;;;;;20923573;28;20494;-64
2023/05/29 04:22:10;;;;;;;17.10;11.13;;;;;;;;;;20922795;28;20500;-64
2023/05/29 04:32:11;;;;;;;16.92;10.98;;;;;;;;;;20920388;28;20060;-65
2023/05/29 04:42:14;;;;;;;20.80;11.52;;;;;;;;;;20919659;28;20120;-63
2023/05/29 04:52:16;;;;;;;19.70;12.18;;;;;;;;;;20920008;28;20094;-65
2023/05/29 05:02:17;;;;;;;21.40;13.20;;;;;;;;;;20919436;28;20114;-65
2023/05/29 05:12:18;;;;;;;20.30;13.05;;;;;;;;;;20917582;28;20045;-64
2023/05/29 05:22:20;;;;;;;19.67;12.68;;;;;;;;;;20917766;28;20041;-64
2023/05/29 05:32:21;;;;;;;16.25;10.73;;;;;;;;;;20915656;28;20052;-65
2023/05/29 05:42:22;;;;;;;19.20;11.98;;;;;;;;;;20915302;28;20124;-65
2023/05/29 05:52:24;;;;;;;17.33;12.55;;;;;;;;;;20915572;28;20049;-64
2023/05/29 06:02:25;;;;;;;18.27;11.45;;;;;;;;;;20915301;28;20043;-65
2023/05/29 06:12:27;;;;;;;16.77;11.77;;;;;;;;;;20914444;28;20073;-64
2023/05/29 06:22:28;;;;;;;19.27;12.18;;;;;;;;;;20913685;28;20045;-64
2023/05/29 06:32:29;;;;;;;16.00;11.05;;;;;;;;;;20911593;28;20060;-64
2023/05/29 06:42:31;;;;;;;15.43;10.55;;;;;;;;;;20912897;28;20060;-65
2023/05/29 06:52:32;;;;;;;16.50;9.30;;;;;;;;;;20912653;28;20041;-64
2023/05/29 07:02:33;;;;;;;16.80;7.53;;;;;;;;;;20912087;28;20045;-65
2023/05/29 07:12:34;;;;;;;16.67;9.10;;;;;;;;;;20911562;28;20045;-65
2023/05/29 07:22:35;;;;;;;15.25;8.63;;;;;;;;;;20911542;28;20037;-64
2023/05/29 07:32:36;;;;;;;14.70;8.20;;;;;;;;;;20915323;28;20085;-65
2023/05/29 07:42:38;;;;;;;15.10;9.75;;;;;;;;;;20925802;28;20275;-64
2023/05/29 07:52:39;;;;;;;17.08;8.73;;;;;;;;;;20924315;28;20051;-65
2023/05/29 08:02:40;;;;;;;12.55;7.75;;;;;;;;;;20924089;28;20153;-65
2023/05/29 08:12:41;;;;;;;11.55;7.10;;;;;;;;;;20923267;28;20501;-64
2023/05/29 08:22:42;;;;;;;9.40;5.43;;;;;;;;;;20922753;28;20045;-65
2023/05/29 08:32:43;;;;;;;9.40;5.90;;;;;;;;;;20920346;28;20052;-65
2023/05/29 08:42:48;;;;;;;7.95;3.45;;;;;;;;;;20919806;28;20119;-65
2023/05/29 08:52:50;;;;;;;7.63;4.28;;;;;;;;;;20920098;28;20441;-65
2023/05/29 09:02:53;;;;;;;4.80;2.75;;;;;;;;;;20919032;28;20118;-65
2023/05/29 09:12:54;;;;;;;4.95;2.45;;;;;;;;;;20918563;28;20406;-65
2023/05/29 09:23:03;;;;;;;4.53;2.22;;;;;;;;;;20919199;28;20049;-64
2023/05/29 09:33:05;;;;;;;4.93;2.10;;;;;;;;;;20918173;28;20065;-65
2023/05/29 09:43:10;;;;;;;6.05;2.60;;;;;;;;;;20915135;28;20045;-65
2023/05/29 09:53:25;;;;;;;3.95;2.55;;;;;;;;;;20915034;28;20368;-65
2023/05/29 10:03:26;;;;;;;4.10;2.83;;;;;;;;;;20915125;28;20040;-66
2023/05/29 10:13:28;;;;;;;3.80;2.40;;;;;;;;;;20914138;28;20486;-65
2023/05/29 10:23:30;;;;;;;3.47;1.80;;;;;;;;;;20913780;28;20524;-66
2023/05/29 10:33:38;;;;;;;3.60;2.33;;;;;;;;;;20913575;28;20064;-64
2023/05/29 10:43:41;;;;;;;4.20;2.70;;;;;;;;;;20912199;28;20456;-65
2023/05/29 10:53:42;;;;;;;3.72;2.00;;;;;;;;;;20908710;28;20052;-64
2023/05/29 11:03:43;;;;;;;3.75;1.75;;;;;;;;;;20909341;28;20052;-65
2023/05/29 11:13:53;;;;;;;4.57;1.88;;;;;;;;;;20924118;28;20482;-65
2023/05/29 11:23:54;;;;;;;4.03;1.73;;;;;;;;;;20927223;28;20481;-65
2023/05/29 11:33:56;;;;;;;5.30;2.25;;;;;;;;;;20925059;28;20080;-64
2023/05/29 11:43:58;;;;;;;5.35;2.60;;;;;;;;;;20926068;28;20120;-65
2023/05/29 11:53:59;;;;;;;7.93;2.15;;;;;;;;;;20924805;28;20501;-65
2023/05/29 12:04:00;;;;;;;2.30;1.67;;;;;;;;;;20924081;28;20076;-64
2023/05/29 12:14:01;;;;;;;4.45;3.10;;;;;;;;;;20923108;28;20041;-65
2023/05/29 12:24:03;;;;;;;3.72;1.90;;;;;;;;;;20921812;28;20061;-64
2023/05/29 12:34:12;;;;;;;3.05;2.08;;;;;;;;;;20920913;28;20049;-64
2023/05/29 12:44:13;;;;;;;3.95;2.17;;;;;;;;;;20921069;28;20052;-65
2023/05/29 12:54:15;;;;;;;5.10;2.40;;;;;;;;;;20919898;28;20052;-64
2023/05/29 13:04:16;;;;;;;4.35;2.28;;;;;;;;;;20919025;28;20394;-64
2023/05/29 13:14:17;;;;;;;4.70;2.25;;;;;;;;;;20918840;28;20474;-64
2023/05/29 13:24:18;;;;;;;3.63;1.80;;;;;;;;;;20917273;28;20281;-67
2023/05/29 13:34:19;;;;;;;7.40;3.95;;;;;;;;;;20914848;28;20049;-65
2023/05/29 13:44:20;;;;;;;6.10;1.90;;;;;;;;;;20915442;28;20099;-64
2023/05/29 13:54:22;;;;;;;5.75;1.92;;;;;;;;;;20914061;28;20052;-65
2023/05/29 14:04:23;;;;;;;3.55;1.77;;;;;;;;;;20914392;28;20055;-65
2023/05/29 14:14:25;;;;;;;5.40;1.95;;;;;;;;;;20914320;28;20056;-64
2023/05/29 14:24:26;;;;;;;6.82;2.08;;;;;;;;;;20966616;28;20483;-64
2023/05/29 14:34:27;;;;;;;3.90;2.00;;;;;;;;;;20994976;28;20105;-65
2023/05/29 14:44:29;;;;;;;3.05;2.22;;;;;;;;;;21005968;28;20560;-65
2023/05/29 14:54:30;;;;;;;4.70;2.10;;;;;;;;;;21012081;28;20048;-64
2023/05/29 15:04:31;;;;;;;6.63;1.70;;;;;;;;;;21011381;28;20036;-64
2023/05/29 15:14:32;;;;;;;2.45;1.50;;;;;;;;;;21010496;28;20052;-64
2023/05/29 15:24:34;;;;;;;5.88;1.77;;;;;;;;;;21009318;28;20056;-64
2023/05/29 15:34:36;;;;;;;3.80;1.20;;;;;;;;;;21009409;28;20559;-65
2023/05/29 15:44:37;;;;;;;5.00;1.92;;;;;;;;;;21007504;28;20048;-64
2023/05/29 15:54:38;;;;;;;9.43;5.82;;;;;;;;;;21007088;28;20095;-64
2023/05/29 16:04:39;;;;;;;1.38;0.90;;;;;;;;;;21007272;28;20416;-65
2023/05/29 16:14:41;;;;;;;3.75;1.60;;;;;;;;;;21003655;28;20052;-64
2023/05/29 16:24:42;;;;;;;4.93;1.27;;;;;;;;;;21003729;28;20056;-64
2023/05/29 16:34:43;;;;;;;6.07;2.00;;;;;;;;;;21001733;28;20052;-64
2023/05/29 16:44:44;;;;;;;11.30;3.20;;;;;;;;;;21002778;28;20067;-65
2023/05/29 16:54:49;;;;;;;7.97;2.55;;;;;;;;;;21002877;28;20052;-65
2023/05/29 17:04:50;;;;;;;5.18;2.00;;;;;;;;;;21000439;28;20045;-65
2023/05/29 17:14:51;;;;;;;7.45;2.42;;;;;;;;;;20999109;28;20131;-64
2023/05/29 17:24:52;;;;;;;9.02;2.40;;;;;;;;;;20996678;28;20074;-64
2023/05/29 17:35:02;;;;;;;5.78;1.98;;;;;;;;;;21067248;27;20489;-64
2023/05/29 17:45:03;;;;;;;7.57;2.53;;;;;;;;;;21067916;28;20045;-63
2023/05/29 17:55:04;;;;;;;7.18;2.92;;;;;;;;;;21067433;28;20040;-64
2023/05/29 18:05:06;;;;;;;4.70;1.90;;;;;;;;;;21066202;28;20048;-65
2023/05/29 18:15:07;;;;;;;6.15;2.30;;;;;;;;;;21065670;28;20094;-65
2023/05/29 18:25:09;;;;;;;7.78;3.50;;;;;;;;;;21064529;28;20095;-64
2023/05/29 18:35:10;;;;;;;7.40;2.97;;;;;;;;;;21065182;28;20052;-64
2023/05/29 18:45:11;;;;;;;8.43;3.45;;;;;;;;;;21013447;28;20509;-64
2023/05/29 18:55:12;;;;;;;11.52;4.10;;;;;;;;;;21004689;28;20134;-64
2023/05/29 19:05:13;;;;;;;7.57;3.03;;;;;;;;;;21004206;28;20525;-64
2023/05/29 19:15:14;;;;;;;7.93;3.58;;;;;;;;;;21002791;28;20131;-63
2023/05/29 19:25:16;;;;;;;10.02;3.17;;;;;;;;;;21003803;28;20486;-65
2023/05/29 19:35:17;;;;;;;6.22;2.53;;;;;;;;;;21002993;28;20044;-64
2023/05/29 19:45:18;;;;;;;7.68;3.45;;;;;;;;;;21001593;28;20105;-64
2023/05/29 19:55:21;;;;;;;8.48;3.35;;;;;;;;;;21000193;28;20063;-64
2023/05/29 20:05:22;;;;;;;6.60;2.97;;;;;;;;;;20999928;28;20124;-64
2023/05/29 20:15:23;;;;;;;10.55;4.38;;;;;;;;;;20998987;28;20370;-64
2023/05/29 20:25:26;;;;;;;8.98;4.63;;;;;;;;;;20997581;28;20593;-63
2023/05/29 20:35:28;;;;;;;15.82;4.55;;;;;;;;;;20997279;28;20040;-64
2023/05/29 20:45:31;;;;;;;10.38;4.40;;;;;;;;;;20997014;28;20049;-65
2023/05/29 20:55:32;;;;;;;10.90;4.70;;;;;;;;;;20996465;28;20056;-65
2023/05/29 21:05:34;;;;;;;11.93;5.15;;;;;;;;;;20994990;28;20040;-64
2023/05/29 21:15:36;;;;;;;10.35;4.70;;;;;;;;;;20993765;28;20048;-64
2023/05/29 21:25:37;;;;;;;11.88;5.20;;;;;;;;;;20994298;28;20397;-64
2023/05/29 21:35:38;;;;;;;10.05;5.15;;;;;;;;;;20993887;28;20438;-65
2023/05/29 21:45:39;;;;;;;13.57;6.13;;;;;;;;;;20993561;28;20410;-64
2023/05/29 21:55:40;;;;;;;16.95;6.30;;;;;;;;;;20991732;28;20094;-64
2023/05/29 22:05:41;;;;;;;14.88;6.85;;;;;;;;;;20992840;28;20520;-64
2023/05/29 22:15:43;;;;;;;12.65;6.03;;;;;;;;;;20998057;28;20442;-64
2023/05/29 22:25:44;;;;;;;12.65;6.00;;;;;;;;;;21006791;28;20063;-64
2023/05/29 22:35:45;;;;;;;12.95;5.95;;;;;;;;;;21006459;28;20094;-64
2023/05/29 22:45:46;;;;;;;12.95;5.47;;;;;;;;;;21005903;28;20052;-64
2023/05/29 22:55:49;;;;;;;8.18;3.95;;;;;;;;;;21003681;28;20135;-65
2023/05/29 23:05:50;;;;;;;9.00;4.45;;;;;;;;;;21003866;28;20095;-63
2023/05/29 23:15:53;;;;;;;8.70;4.00;;;;;;;;;;21003506;28;20048;-63
2023/05/29 23:25:55;;;;;;;8.07;4.13;;;;;;;;;;21003142;28;20049;-64
2023/05/29 23:35:56;;;;;;;10.85;4.80;;;;;;;;;;21003683;28;20090;-65
2023/05/29 23:45:57;;;;;;;14.30;5.40;;;;;;;;;;21002874;28;20520;-64
2023/05/29 23:55:58;;;;;;;8.82;5.25;;;;;;;;;;21001913;28;20397;-64
